Bridgewater, Massachusetts
Current Conditions -  °F | °C
As of 12:52 AM on Thursday 29 Jan 2015 (Local Time) from KTAN Reporting Station
Clear Clear  
Wind Chill: -18°   Ceiling: Unl
Heat Index: -18°   Visibility: 10mi
Dew Point: -21°   Wind: 0mph
Humidity: 83%   Direction: NA
Pressure: 30.23"   Gusts: NA
Location:  41.99°N, 70.98°W
Report Text: KTAN 290552Z AUTO 00000KT 10SM CLR M18/M21 A3023 RMK AO2 SLP238 I6000 T11831206 11106 21183 51016
Loading
Personal Weather Stations






























Interactive Weather Map New forecast layout! Learn more

10-Day Weather Forecast

Advertisements
Track Severe Weather on mobile